createdAt,value
2017-11-29T02:44:48.430Z,7.00
2017-11-29T02:47:15.914Z,6.41
2017-11-29T02:49:43.870Z,5.96
2017-11-29T02:52:11.385Z,5.65
2017-11-29T02:54:38.795Z,5.42
2017-11-29T02:57:06.223Z,5.27
2017-11-29T02:59:33.766Z,4.99
2017-11-29T03:02:01.312Z,4.66
2017-11-29T03:04:28.746Z,4.45
2017-11-29T03:08:35.283Z,4.70
2017-11-29T03:11:03.594Z,4.53
2017-11-29T03:13:32.176Z,4.73
2017-11-29T03:16:00.470Z,4.30
2017-11-29T03:18:32.999Z,4.49
2017-11-29T03:21:01.327Z,4.71
2017-11-29T03:23:31.837Z,4.69
2017-11-29T03:26:00.220Z,4.71
2017-11-29T03:28:32.259Z,4.65
2017-11-29T03:31:00.578Z,4.57
2017-11-29T03:33:32.367Z,4.38
2017-11-29T03:36:01.194Z,4.53
2017-11-29T03:38:32.098Z,4.60
2017-11-29T03:41:00.397Z,4.27
2017-11-29T03:43:33.190Z,4.57
2017-11-29T03:46:01.466Z,4.58
2017-11-29T03:48:31.748Z,4.45
2017-11-29T03:51:00.108Z,4.55
2017-11-29T03:53:31.529Z,4.65
2017-11-29T03:55:59.823Z,4.72
2017-11-29T03:58:31.365Z,4.73
2017-11-29T04:00:59.961Z,4.66
2017-11-29T04:03:31.031Z,4.57
2017-11-29T04:05:59.305Z,4.50
2017-11-29T04:08:30.981Z,4.57
2017-11-29T04:10:59.273Z,4.48
2017-11-29T04:13:30.894Z,4.34
2017-11-29T04:15:59.179Z,4.29
2017-11-29T04:18:30.470Z,4.29
2017-11-29T04:20:58.748Z,4.38
2017-11-29T04:23:33.522Z,4.12
2017-11-29T04:26:01.804Z,4.04
2017-11-29T04:28:31.946Z,4.32
2017-11-29T04:31:00.522Z,4.43
2017-11-29T04:33:32.702Z,4.34
2017-11-29T04:36:01.008Z,4.37
2017-11-29T04:38:32.198Z,4.37
2017-11-29T04:41:01.028Z,4.33
2017-11-29T04:43:31.024Z,4.30
2017-11-29T04:45:59.389Z,4.37
2017-11-29T04:48:34.710Z,4.40
2017-11-29T04:51:03.295Z,4.48
2017-11-29T04:53:31.575Z,4.34
2017-11-29T04:56:00.183Z,4.34
2017-11-29T04:58:31.923Z,4.52
2017-11-29T05:01:00.235Z,4.55
2017-11-29T05:03:32.121Z,4.53
2017-11-29T05:06:00.536Z,4.44
2017-11-29T05:08:32.721Z,4.43
2017-11-29T05:11:00.990Z,4.48
2017-11-29T05:13:31.338Z,4.47
2017-11-29T05:15:59.763Z,4.44
2017-11-29T05:18:31.301Z,4.32
2017-11-29T05:20:59.579Z,4.39
2017-11-29T05:23:31.361Z,4.44
2017-11-29T05:25:59.847Z,4.36
2017-11-29T05:28:31.067Z,4.40
2017-11-29T05:30:59.358Z,4.43
2017-11-29T05:33:30.991Z,4.37
2017-11-29T05:35:59.354Z,4.48
2017-11-29T05:38:30.064Z,4.41
2017-11-29T05:40:58.703Z,4.47
2017-11-29T05:43:30.043Z,4.49
2017-11-29T05:45:58.578Z,4.31
2017-11-29T05:48:31.651Z,4.26
2017-11-29T05:50:59.957Z,4.23
2017-11-29T05:53:31.701Z,4.20
2017-11-29T05:56:00.002Z,4.26
2017-11-29T05:58:31.630Z,4.32
2017-11-29T06:01:00.024Z,4.24
2017-11-29T06:03:31.247Z,4.28
2017-11-29T06:05:59.539Z,4.26
2017-11-29T06:08:30.974Z,4.20
2017-11-29T06:10:59.922Z,4.22
2017-11-29T06:13:31.899Z,4.18
2017-11-29T06:16:00.299Z,4.29
2017-11-29T06:18:32.269Z,4.23
2017-11-29T06:21:00.723Z,4.29
2017-11-29T06:23:30.645Z,4.28
2017-11-29T06:25:58.930Z,4.26
2017-11-29T06:28:30.098Z,4.28
2017-11-29T06:30:58.406Z,4.38
2017-11-29T06:33:30.052Z,4.30
2017-11-29T06:35:58.358Z,4.31
2017-11-29T06:38:29.872Z,4.29
2017-11-29T06:40:58.202Z,4.26
2017-11-29T06:43:29.476Z,4.20
2017-11-29T06:45:57.771Z,4.15
2017-11-29T06:48:32.443Z,4.22
2017-11-29T06:51:00.751Z,4.25
2017-11-29T06:53:30.585Z,4.31
2017-11-29T06:55:58.873Z,4.27
2017-11-29T06:58:31.522Z,4.32
2017-11-29T07:01:00.323Z,4.30
2017-11-29T07:03:31.731Z,4.40
2017-11-29T07:06:00.032Z,4.45
2017-11-29T07:08:32.526Z,4.47
2017-11-29T07:11:00.803Z,4.54
2017-11-29T07:13:30.462Z,4.62
2017-11-29T07:15:59.362Z,4.53
2017-11-29T07:18:31.521Z,4.59
2017-11-29T07:20:59.863Z,4.54
2017-11-29T07:23:30.359Z,4.52
2017-11-29T07:25:58.603Z,4.65
2017-11-29T07:28:31.633Z,4.47
2017-11-29T07:30:59.960Z,4.45
2017-11-29T07:33:31.876Z,4.57
2017-11-29T07:36:00.150Z,4.87
2017-11-29T07:38:31.654Z,4.84
2017-11-29T07:41:00.067Z,4.74
2017-11-29T07:43:31.907Z,4.92
2017-11-29T07:46:00.443Z,5.01
2017-11-29T07:48:30.438Z,4.88
2017-11-29T07:50:59.335Z,4.88
2017-11-29T07:53:31.782Z,4.88
2017-11-29T07:56:00.253Z,4.85
2017-11-29T07:58:30.048Z,4.86
2017-11-29T08:00:58.344Z,4.74
2017-11-29T08:03:30.000Z,4.72
2017-11-29T08:05:58.402Z,4.73
2017-11-29T08:08:30.079Z,4.73
2017-11-29T08:10:58.384Z,4.82
2017-11-29T08:13:33.557Z,4.68
2017-11-29T08:16:01.854Z,4.81
2017-11-29T08:18:30.299Z,5.13
2017-11-29T08:20:58.851Z,5.33
2017-11-29T08:23:30.124Z,5.44
2017-11-29T08:25:58.403Z,5.53
2017-11-29T08:28:29.896Z,5.57
2017-11-29T08:30:58.288Z,5.87
2017-11-29T08:33:29.514Z,6.14
2017-11-29T08:35:57.798Z,6.41
2017-11-29T08:38:32.573Z,6.58
2017-11-29T08:41:00.882Z,6.86
2017-11-29T08:43:30.908Z,7.17
2017-11-29T08:45:59.175Z,7.10
2017-11-29T08:48:30.673Z,6.69
2017-11-29T08:50:58.981Z,6.59
2017-11-29T08:53:30.786Z,6.51
2017-11-29T08:55:59.083Z,6.46
2017-11-29T08:58:30.298Z,6.41
2017-11-29T09:00:59.128Z,6.25
2017-11-29T09:03:30.822Z,6.02
2017-11-29T09:05:59.340Z,5.95
2017-11-29T09:08:32.078Z,5.85
2017-11-29T09:11:00.379Z,5.76
2017-11-29T09:13:31.922Z,5.75
2017-11-29T09:16:00.403Z,5.82
2017-11-29T09:18:31.740Z,5.77
2017-11-29T09:21:00.133Z,5.93
2017-11-29T09:23:31.671Z,5.42
2017-11-29T09:26:00.430Z,5.70
2017-11-29T09:28:30.687Z,5.76
2017-11-29T09:30:58.977Z,5.47
2017-11-29T09:33:31.090Z,5.82
2017-11-29T09:35:59.661Z,5.64
2017-11-29T09:38:31.715Z,5.75
2017-11-29T09:40:59.997Z,6.07
2017-11-29T09:43:32.339Z,6.47
2017-11-29T09:46:01.049Z,7.56
2017-11-29T09:48:30.671Z,7.58
2017-11-29T09:50:59.215Z,7.99
2017-11-29T09:53:30.477Z,7.27
2017-11-29T09:55:59.018Z,6.99
2017-11-29T09:58:31.076Z,8.52
2017-11-29T10:00:59.340Z,7.62
2017-11-29T10:03:31.363Z,9.46
2017-11-29T10:05:59.965Z,8.98
2017-11-29T10:08:31.166Z,9.35
2017-11-29T10:10:59.538Z,9.94
2017-11-29T10:13:31.295Z,10.36
2017-11-29T10:15:59.604Z,9.57
2017-11-29T10:18:31.871Z,8.61
2017-11-29T10:21:00.114Z,10.35
2017-11-29T10:23:30.257Z,9.64
2017-11-29T10:25:58.930Z,9.35
2017-11-29T10:28:30.324Z,9.65
2017-11-29T10:30:58.791Z,10.33
2017-11-29T10:33:33.055Z,10.17
2017-11-29T10:36:01.979Z,8.38
2017-11-29T10:38:30.265Z,9.78
2017-11-29T10:40:58.623Z,9.82
2017-11-29T10:43:30.334Z,10.33
2017-11-29T10:45:58.590Z,9.92
2017-11-29T10:48:33.595Z,8.02
2017-11-29T10:51:01.866Z,7.09
2017-11-29T10:53:30.149Z,7.37
2017-11-29T10:55:59.015Z,7.48
2017-11-29T10:58:30.311Z,8.17
2017-11-29T11:00:58.990Z,8.32
2017-11-29T11:03:30.651Z,8.59
2017-11-29T11:05:58.973Z,8.55
2017-11-29T11:08:30.147Z,8.82
2017-11-29T11:10:58.419Z,10.68
2017-11-29T11:13:31.856Z,11.18
2017-11-29T11:16:00.400Z,11.22
2017-11-29T11:18:31.216Z,12.03
2017-11-29T11:20:59.524Z,11.28
2017-11-29T11:23:31.446Z,10.88
2017-11-29T11:26:00.066Z,12.67
2017-11-29T11:28:32.135Z,13.34
2017-11-29T11:31:00.798Z,11.10
2017-11-29T11:33:32.185Z,9.76
2017-11-29T11:36:00.496Z,9.69
2017-11-29T11:38:31.913Z,9.15
2017-11-29T11:41:00.194Z,8.92
2017-11-29T11:43:30.601Z,10.65
2017-11-29T11:45:59.112Z,9.21
2017-11-29T11:48:30.931Z,8.68
2017-11-29T11:51:00.101Z,8.90
2017-11-29T11:53:30.107Z,10.64
2017-11-29T11:55:58.418Z,10.96
2017-11-29T11:58:29.802Z,9.05
2017-11-29T12:01:02.646Z,8.27
2017-11-29T12:03:32.136Z,8.30
2017-11-29T12:06:00.406Z,9.24
2017-11-29T12:08:30.423Z,11.17
2017-11-29T12:10:58.728Z,11.76
2017-11-29T12:13:31.071Z,11.24
2017-11-29T12:15:59.381Z,11.37
2017-11-29T12:18:31.155Z,10.06
2017-11-29T12:20:59.570Z,10.97
2017-11-29T12:23:32.290Z,10.73
2017-11-29T12:26:01.013Z,10.66
2017-11-29T12:28:31.054Z,11.46
2017-11-29T12:30:59.327Z,9.90
2017-11-29T12:33:30.190Z,9.63
2017-11-29T12:35:58.898Z,10.53
2017-11-29T12:38:30.103Z,12.56
2017-11-29T12:40:58.378Z,13.94
2017-11-29T12:43:30.612Z,10.65
2017-11-29T12:45:58.841Z,8.72
2017-11-29T12:48:42.253Z,7.97
2017-11-29T12:51:15.868Z,8.39
2017-11-29T12:53:44.154Z,8.66
2017-11-29T12:56:12.462Z,8.51
2017-11-29T12:58:41.003Z,7.59
2017-11-29T13:01:09.516Z,7.15
2017-11-29T13:03:37.835Z,7.09
2017-11-29T13:06:06.831Z,6.92
2017-11-29T13:08:35.234Z,7.31
2017-11-29T13:11:03.505Z,7.18
2017-11-29T13:13:31.823Z,7.13
2017-11-29T13:16:00.259Z,7.17
2017-11-29T13:18:33.353Z,7.52
2017-11-29T13:21:01.701Z,7.04
2017-11-29T13:23:30.565Z,7.15
2017-11-29T13:25:58.849Z,6.97
2017-11-29T13:28:30.155Z,6.93
2017-11-29T13:30:58.448Z,7.10
2017-11-29T13:33:33.612Z,7.51
2017-11-29T13:36:01.911Z,7.76
2017-11-29T13:38:30.187Z,7.53
2017-11-29T13:40:58.485Z,7.21
2017-11-29T13:43:34.330Z,7.00
2017-11-29T13:46:02.630Z,7.50
2017-11-29T13:48:32.198Z,7.04
2017-11-29T13:51:00.432Z,7.06
2017-11-29T13:53:31.203Z,7.05
2017-11-29T13:55:59.468Z,7.30
2017-11-29T13:58:30.360Z,6.80
2017-11-29T14:00:58.609Z,6.75
2017-11-29T14:03:33.767Z,6.76
2017-11-29T14:06:02.026Z,6.59
2017-11-29T14:08:30.311Z,6.69
2017-11-29T14:10:59.838Z,7.03
2017-11-29T14:13:32.534Z,6.75
2017-11-29T14:16:00.792Z,6.52
2017-11-29T14:18:30.463Z,6.40
2017-11-29T14:20:58.772Z,6.46
2017-11-29T14:23:33.424Z,6.33
2017-11-29T14:26:01.705Z,6.43
2017-11-29T14:28:32.149Z,6.54
2017-11-29T14:31:00.463Z,6.51
2017-11-29T14:33:31.866Z,6.48
2017-11-29T14:36:00.550Z,6.48
2017-11-29T14:38:31.795Z,6.36
2017-11-29T14:41:00.103Z,6.31
2017-11-29T14:43:33.339Z,6.21
2017-11-29T14:46:02.220Z,6.19
2017-11-29T14:48:31.839Z,6.22
2017-11-29T14:51:00.189Z,6.04
2017-11-29T14:53:33.790Z,6.33
2017-11-29T14:56:02.103Z,6.12
2017-11-29T14:58:30.464Z,6.31
2017-11-29T15:00:58.766Z,6.11
2017-11-29T15:03:30.932Z,6.21
2017-11-29T15:05:59.268Z,6.09
2017-11-29T15:08:32.527Z,6.05
2017-11-29T15:11:00.869Z,6.52
2017-11-29T15:13:34.792Z,6.64
2017-11-29T15:16:03.169Z,6.53
2017-11-29T15:18:31.535Z,6.50
2017-11-29T15:21:00.553Z,6.50
2017-11-29T15:23:32.712Z,6.39
2017-11-29T15:26:01.129Z,5.88
2017-11-29T15:28:31.869Z,5.85
2017-11-29T15:31:00.297Z,5.91
2017-11-29T15:33:32.148Z,6.37
2017-11-29T15:36:00.499Z,6.39
2017-11-29T15:41:12.873Z,6.58
2017-11-29T15:43:41.289Z,6.52
2017-11-29T15:46:13.464Z,6.38
2017-11-29T15:48:41.873Z,6.35
2017-11-29T15:51:10.334Z,6.27
2017-11-29T15:53:38.654Z,6.15
2017-11-29T15:56:06.993Z,6.14
2017-11-29T15:58:35.352Z,5.98
2017-11-29T16:01:03.733Z,5.84
2017-11-29T16:03:32.574Z,5.77
2017-11-29T16:06:00.914Z,5.62
2017-11-29T16:08:30.634Z,5.46
2017-11-29T16:10:58.954Z,5.53
2017-11-29T16:13:30.492Z,5.62
2017-11-29T16:16:03.495Z,5.55
2017-11-29T16:18:32.126Z,5.44
2017-11-29T16:21:01.278Z,5.52
2017-11-29T16:23:31.331Z,5.42
2017-11-29T16:25:59.756Z,5.65
2017-11-29T16:28:31.232Z,5.69
2017-11-29T16:30:59.699Z,5.46
2017-11-29T16:33:31.871Z,5.41
2017-11-29T16:36:00.206Z,5.45
2017-11-29T16:38:30.222Z,5.45
2017-11-29T16:40:58.602Z,5.40
2017-11-29T16:43:33.880Z,5.49
2017-11-29T16:46:02.224Z,5.51
2017-11-29T16:48:30.937Z,5.54
2017-11-29T16:50:59.285Z,5.57
2017-11-29T16:53:31.154Z,5.52
2017-11-29T16:56:00.227Z,5.55
2017-11-29T16:58:30.460Z,5.53
2017-11-29T17:00:58.885Z,5.57
2017-11-29T17:03:30.840Z,5.62
2017-11-29T17:05:59.191Z,5.56
2017-11-29T17:08:35.484Z,5.39
2017-11-29T17:11:04.074Z,5.21
2017-11-29T17:13:32.418Z,5.31
2017-11-29T17:16:01.752Z,5.39
2017-11-29T17:18:30.307Z,5.28
2017-11-29T17:20:58.717Z,5.22
2017-11-29T17:23:30.686Z,5.17
2017-11-29T17:25:59.639Z,5.17
2017-11-29T17:28:31.796Z,5.15
2017-11-29T17:31:00.321Z,5.14
2017-11-29T17:33:30.818Z,5.17
2017-11-29T17:35:59.234Z,5.17
2017-11-29T17:38:34.836Z,5.12
2017-11-29T17:41:03.164Z,5.05
2017-11-29T17:43:31.548Z,5.29
2017-11-29T17:45:59.841Z,5.23
2017-11-29T17:48:32.095Z,5.13
2017-11-29T17:51:00.435Z,5.04
2017-11-29T17:53:31.769Z,4.82
2017-11-29T17:56:00.352Z,5.03
2017-11-29T17:58:30.271Z,5.07
2017-11-29T18:00:59.019Z,5.03
2017-11-29T18:03:30.205Z,5.01
2017-11-29T18:05:58.604Z,5.07
2017-11-29T18:08:32.941Z,4.99
2017-11-29T18:11:01.477Z,4.92
2017-11-29T18:13:30.703Z,4.95
2017-11-29T18:15:59.110Z,5.10
2017-11-29T18:18:30.467Z,5.11
2017-11-29T18:20:59.520Z,5.07
2017-11-29T18:23:31.229Z,5.08
2017-11-29T18:25:59.591Z,5.04
2017-11-29T18:28:31.851Z,4.99
2017-11-29T18:31:00.241Z,4.92
2017-11-29T18:33:30.382Z,4.95
2017-11-29T18:35:58.651Z,5.08
2017-11-29T18:38:33.645Z,5.10
2017-11-29T18:41:02.131Z,5.15
2017-11-29T18:43:30.665Z,5.08
2017-11-29T18:45:58.942Z,5.12
2017-11-29T18:48:30.290Z,5.01
2017-11-29T18:50:58.563Z,5.01
2017-11-29T18:53:33.748Z,4.75
2017-11-29T18:56:02.036Z,4.97
2017-11-29T18:58:30.666Z,5.04
2017-11-29T19:00:58.948Z,5.09
2017-11-29T19:03:31.068Z,5.16
2017-11-29T19:06:00.075Z,5.19
2017-11-29T19:08:32.098Z,5.13
2017-11-29T19:11:00.382Z,4.91
2017-11-29T19:13:30.238Z,5.01
2017-11-29T19:15:58.517Z,4.97
2017-11-29T19:18:33.755Z,5.04
2017-11-29T19:21:02.156Z,5.13
2017-11-29T19:23:30.450Z,5.10
2017-11-29T19:25:58.758Z,4.94
2017-11-29T19:28:30.174Z,4.94
2017-11-29T19:30:58.734Z,4.93
2017-11-29T19:33:31.086Z,4.72
2017-11-29T19:35:59.770Z,4.58
2017-11-29T19:38:31.873Z,4.46
2017-11-29T19:41:00.193Z,4.49
2017-11-29T19:43:30.986Z,4.50
2017-11-29T19:45:59.274Z,4.53
2017-11-29T19:48:31.012Z,4.51
2017-11-29T19:50:59.494Z,4.33
2017-11-29T19:53:31.664Z,4.28
2017-11-29T19:56:00.036Z,4.27
2017-11-29T19:58:30.193Z,4.23
2017-11-29T20:00:58.669Z,4.37
2017-11-29T20:03:33.667Z,4.26
2017-11-29T20:06:01.955Z,4.30
2017-11-29T20:08:30.331Z,4.05
2017-11-29T20:10:58.885Z,4.07
2017-11-29T20:13:30.179Z,4.15
2017-11-29T20:15:58.455Z,4.04
2017-11-29T20:18:30.055Z,4.13
2017-11-29T20:20:58.334Z,4.03
2017-11-29T20:23:33.554Z,3.90
2017-11-29T20:26:01.862Z,3.82
2017-11-29T20:28:30.246Z,3.79
2017-11-29T20:30:59.289Z,3.73
2017-11-29T20:33:31.642Z,3.64
2017-11-29T20:35:59.952Z,3.53
2017-11-29T20:38:31.245Z,3.58
2017-11-29T20:40:59.538Z,3.63
2017-11-29T20:43:31.260Z,3.60
2017-11-29T20:45:59.575Z,3.77
2017-11-29T20:48:31.594Z,3.72
2017-11-29T20:50:59.911Z,3.74
2017-11-29T20:53:30.183Z,3.76
2017-11-29T20:55:59.269Z,3.79
2017-11-29T20:58:30.497Z,3.85
2017-11-29T21:00:58.847Z,3.79
2017-11-29T21:03:31.005Z,3.74
2017-11-29T21:05:59.978Z,3.54
2017-11-29T21:08:31.611Z,3.51
2017-11-29T21:10:59.917Z,3.56
2017-11-29T21:13:32.096Z,3.67
2017-11-29T21:16:00.397Z,3.55
2017-11-29T21:18:31.948Z,3.58
2017-11-29T21:21:00.326Z,3.67
2017-11-29T21:23:33.348Z,3.68
2017-11-29T21:26:01.865Z,3.66
2017-11-29T21:28:30.567Z,3.76
2017-11-29T21:30:58.881Z,3.73
2017-11-29T21:33:31.024Z,3.67
2017-11-29T21:35:59.404Z,3.55
2017-11-29T21:38:30.816Z,3.50
2017-11-29T21:40:59.259Z,3.53
2017-11-29T21:43:31.424Z,3.51
2017-11-29T21:46:01.072Z,3.57
2017-11-29T21:48:31.129Z,3.55
2017-11-29T21:50:59.536Z,3.60
2017-11-29T21:53:32.723Z,3.63
2017-11-29T21:56:01.043Z,3.68
2017-11-29T21:58:30.337Z,3.52
2017-11-29T22:00:59.121Z,3.47
2017-11-29T22:03:31.959Z,3.55
2017-11-29T22:06:00.274Z,3.44
2017-11-29T22:08:30.082Z,3.50
2017-11-29T22:10:58.415Z,3.49
2017-11-29T22:13:30.204Z,3.52
2017-11-29T22:15:58.501Z,3.39
2017-11-29T22:18:30.310Z,3.42
2017-11-29T22:20:58.623Z,3.41
2017-11-29T22:23:30.737Z,3.41
2017-11-29T22:25:59.050Z,3.31
2017-11-29T22:28:30.845Z,3.22
2017-11-29T22:30:59.316Z,3.18
2017-11-29T22:33:31.691Z,3.12
2017-11-29T22:36:00.067Z,3.01
2017-11-29T22:38:30.146Z,2.90
2017-11-29T22:40:59.043Z,2.89
2017-11-29T22:43:30.737Z,2.90
2017-11-29T22:45:59.039Z,2.98
2017-11-29T22:48:30.256Z,2.92
2017-11-29T22:50:58.756Z,2.85
2017-11-29T22:53:30.676Z,2.70
2017-11-29T22:55:59.176Z,2.74
2017-11-29T22:58:30.386Z,2.88
2017-11-29T23:01:02.425Z,2.88
2017-11-29T23:03:30.990Z,2.76
2017-11-29T23:05:59.296Z,2.68
2017-11-29T23:08:29.250Z,2.67
2017-11-29T23:10:57.577Z,2.83
2017-11-29T23:13:29.746Z,2.90
2017-11-29T23:15:58.249Z,2.88
2017-11-29T23:18:30.072Z,2.88
2017-11-29T23:20:58.387Z,2.82
2017-11-29T23:23:29.941Z,2.82
2017-11-29T23:25:58.468Z,2.90
2017-11-29T23:28:29.581Z,2.83
2017-11-29T23:30:58.239Z,2.88
2017-11-29T23:33:30.915Z,2.86
2017-11-29T23:35:59.222Z,2.92
2017-11-29T23:38:29.401Z,2.86
2017-11-29T23:40:57.751Z,2.87
2017-11-29T23:43:33.088Z,2.81
2017-11-29T23:46:01.359Z,2.97
2017-11-29T23:48:29.654Z,3.12
2017-11-29T23:50:57.930Z,3.12
2017-11-29T23:53:29.942Z,3.04
2017-11-29T23:55:58.958Z,2.91
2017-11-29T23:58:30.455Z,3.02
